createdAt,value
2023-05-07T00:02:12.193Z,98165.66
2023-05-07T00:04:40.035Z,98163.63
2023-05-07T00:07:07.380Z,98166.97
2023-05-07T00:09:34.927Z,98170.31
2023-05-07T00:12:02.487Z,98166.03
2023-05-07T00:14:30.038Z,98171.28
2023-05-07T00:16:57.293Z,98176.38
2023-05-07T00:19:24.832Z,98177.78
2023-05-07T00:21:54.591Z,98176.19
2023-05-07T00:24:22.064Z,98176.03
2023-05-07T00:26:49.438Z,98172.72
2023-05-07T00:29:17.080Z,98176.16
2023-05-07T00:31:44.362Z,98171.22
2023-05-07T00:34:11.969Z,98178.97
2023-05-07T00:36:39.178Z,98186.63
2023-05-07T00:39:06.816Z,98189.50
2023-05-07T00:41:34.103Z,98188.75
2023-05-07T00:44:03.478Z,98181.13
2023-05-07T00:46:33.938Z,98191.88
2023-05-07T00:49:02.400Z,98192.81
2023-05-07T00:51:32.012Z,98185.66
2023-05-07T00:54:00.988Z,98185.66
2023-05-07T00:56:28.630Z,98192.19
2023-05-07T00:58:56.793Z,98188.88
2023-05-07T01:01:24.137Z,98190.19
2023-05-07T01:03:51.779Z,98187.19
2023-05-07T01:06:22.363Z,98192.19
2023-05-07T01:08:52.062Z,98190.66
2023-05-07T01:11:21.495Z,98193.78
2023-05-07T01:13:51.274Z,98193.28
2023-05-07T01:16:18.763Z,98196.75
2023-05-07T01:18:49.198Z,98202.84
2023-05-07T01:21:19.192Z,98193.19
2023-05-07T01:23:48.377Z,98194.63
2023-05-07T01:26:15.785Z,98199.97
2023-05-07T01:28:43.346Z,98203.50
2023-05-07T01:31:11.416Z,98203.63
2023-05-07T01:33:42.320Z,98206.63
2023-05-07T01:36:12.024Z,98199.59
2023-05-07T01:38:42.519Z,98205.53
2023-05-07T01:41:09.801Z,98199.97
2023-05-07T01:43:37.717Z,98201.50
2023-05-07T01:46:06.174Z,98202.72
2023-05-07T01:48:35.644Z,98202.84
2023-05-07T01:51:04.251Z,98192.00
2023-05-07T01:53:41.862Z,98195.69
2023-05-07T01:56:09.192Z,98193.66
2023-05-07T01:58:37.056Z,98197.13
2023-05-07T02:01:04.353Z,98199.53
2023-05-07T02:03:32.020Z,98200.56
2023-05-07T02:05:59.358Z,98198.56
2023-05-07T02:08:26.897Z,98198.56
2023-05-07T02:10:54.981Z,98200.44
2023-05-07T02:13:23.880Z,98197.72
2023-05-07T02:15:51.738Z,98200.22
2023-05-07T02:18:19.297Z,98202.72
2023-05-07T02:20:46.505Z,98197.38
2023-05-07T02:23:14.025Z,98195.00
2023-05-07T02:25:41.377Z,98189.25
2023-05-07T02:28:08.982Z,98199.03
2023-05-07T02:30:37.907Z,98195.69
2023-05-07T02:33:05.711Z,98205.47
2023-05-07T02:35:33.042Z,98208.41
2023-05-07T02:38:00.584Z,98208.19
2023-05-07T02:40:27.811Z,98208.91
2023-05-07T02:42:55.426Z,98204.00
2023-05-07T02:45:22.706Z,98205.44
2023-05-07T02:47:50.284Z,98204.47
2023-05-07T02:50:17.734Z,98207.59
2023-05-07T02:52:45.188Z,98211.03
2023-05-07T02:55:12.540Z,98217.38
2023-05-07T02:57:40.008Z,98214.59
2023-05-07T03:00:21.027Z,98216.75
2023-05-07T03:02:48.523Z,98220.47
2023-05-07T03:05:15.855Z,98214.78
2023-05-07T03:07:46.395Z,98217.88
2023-05-07T03:10:14.837Z,98214.41
2023-05-07T03:12:42.410Z,98225.84
2023-05-07T03:15:11.541Z,98224.31
2023-05-07T03:17:39.491Z,98230.78
2023-05-07T03:20:08.260Z,98228.88
2023-05-07T03:22:36.080Z,98231.72
2023-05-07T03:25:03.576Z,98244.13
2023-05-07T03:27:31.353Z,98241.38
2023-05-07T03:29:58.627Z,98239.88
2023-05-07T03:32:26.369Z,98245.00
2023-05-07T03:34:53.658Z,98252.03
2023-05-07T03:37:22.755Z,98249.94
2023-05-07T03:39:49.956Z,98251.19
2023-05-07T03:42:17.624Z,98245.34
2023-05-07T03:44:44.858Z,98257.47
2023-05-07T03:47:12.444Z,98253.09
2023-05-07T03:49:39.882Z,98252.13
2023-05-07T03:52:07.871Z,98253.88
2023-05-07T03:54:35.096Z,98253.66
2023-05-07T03:57:02.842Z,98260.13
2023-05-07T03:59:30.075Z,98258.59
2023-05-07T04:01:57.667Z,98254.84
2023-05-07T04:04:25.240Z,98262.41
2023-05-07T04:06:53.096Z,98270.22
2023-05-07T04:09:20.281Z,98276.81
2023-05-07T04:11:47.859Z,98277.16
2023-05-07T04:14:15.161Z,98283.34
2023-05-07T04:16:42.683Z,98274.97
2023-05-07T04:19:09.914Z,98287.41
2023-05-07T04:21:37.448Z,98288.28
2023-05-07T04:24:05.277Z,98292.16
2023-05-07T04:26:32.776Z,98286.28
2023-05-07T04:29:00.837Z,98294.63
2023-05-07T04:31:28.487Z,98301.44
2023-05-07T04:33:55.761Z,98306.66
2023-05-07T04:36:23.300Z,98308.34
2023-05-07T04:38:50.665Z,98315.78
2023-05-07T04:41:18.662Z,98312.31
2023-05-07T04:43:46.713Z,98319.41
2023-05-07T04:46:14.558Z,98325.47
2023-05-07T04:48:41.815Z,98332.16
2023-05-07T04:51:09.332Z,98337.59
2023-05-07T04:53:36.689Z,98336.16
2023-05-07T04:56:04.528Z,98342.34
2023-05-07T04:58:32.983Z,98348.28
2023-05-07T05:01:01.635Z,98338.38
2023-05-07T05:03:29.109Z,98344.41
2023-05-07T05:05:56.686Z,98351.22
2023-05-07T05:08:24.056Z,98352.03
2023-05-07T05:10:51.890Z,98350.81
2023-05-07T05:13:19.236Z,98357.00
2023-05-07T05:15:47.040Z,98358.97
2023-05-07T05:18:14.361Z,98361.06
2023-05-07T05:20:41.929Z,98360.22
2023-05-07T05:23:09.515Z,98361.94
2023-05-07T05:25:37.062Z,98376.56
2023-05-07T05:28:04.618Z,98376.22
2023-05-07T05:30:32.160Z,98382.06
2023-05-07T05:32:59.429Z,98383.44
2023-05-07T05:35:26.984Z,98382.19
2023-05-07T05:37:54.466Z,98386.81
2023-05-07T05:40:21.981Z,98387.81
2023-05-07T05:42:49.283Z,98392.94
2023-05-07T05:45:17.000Z,98385.31
2023-05-07T05:47:44.291Z,98399.22
2023-05-07T05:50:12.254Z,98395.69
2023-05-07T05:52:39.700Z,98392.56
2023-05-07T05:55:08.038Z,98394.03
2023-05-07T05:57:35.472Z,98401.75
2023-05-07T06:00:04.152Z,98405.47
2023-05-07T06:02:31.488Z,98405.00
2023-05-07T06:04:59.137Z,98407.19
2023-05-07T06:07:26.675Z,98410.41
2023-05-07T06:09:54.166Z,98414.69
2023-05-07T06:12:22.555Z,98411.63
2023-05-07T06:14:50.093Z,98418.31
2023-05-07T06:17:19.414Z,98420.94
2023-05-07T06:19:48.559Z,98423.16
2023-05-07T06:22:16.125Z,98423.78
2023-05-07T06:24:44.128Z,98424.75
2023-05-07T06:27:11.560Z,98432.53
2023-05-07T06:29:39.094Z,98429.13
2023-05-07T06:32:14.736Z,98432.00
2023-05-07T06:34:42.405Z,98431.31
2023-05-07T06:37:09.776Z,98432.88
2023-05-07T06:39:37.314Z,98438.66
2023-05-07T06:42:05.724Z,98437.06
2023-05-07T06:44:33.417Z,98430.13
2023-05-07T06:47:00.902Z,98441.75
2023-05-07T06:49:28.569Z,98440.97
2023-05-07T06:51:56.561Z,98447.28
2023-05-07T06:54:24.600Z,98454.19
2023-05-07T06:56:51.957Z,98448.84
2023-05-07T06:59:20.500Z,98450.97
2023-05-07T07:01:48.020Z,98455.34
2023-05-07T07:04:15.862Z,98456.66
2023-05-07T07:06:43.105Z,98459.91
2023-05-07T07:09:10.690Z,98459.97
2023-05-07T07:11:37.928Z,98459.81
2023-05-07T07:14:06.485Z,98468.09
2023-05-07T07:16:33.846Z,98463.25
2023-05-07T07:19:01.447Z,98476.34
2023-05-07T07:21:28.757Z,98471.66
2023-05-07T07:23:56.425Z,98471.84
2023-05-07T07:26:23.754Z,98484.91
2023-05-07T07:28:51.274Z,98483.69
2023-05-07T07:31:18.584Z,98486.00
2023-05-07T07:33:46.507Z,98492.50
2023-05-07T07:36:13.780Z,98494.22
2023-05-07T07:38:41.387Z,98501.78
2023-05-07T07:41:11.644Z,98508.53
2023-05-07T07:43:39.178Z,98512.75
2023-05-07T07:46:06.488Z,98506.25
2023-05-07T07:48:34.739Z,98507.72
2023-05-07T07:51:02.017Z,98508.56
2023-05-07T07:53:29.775Z,98507.16
2023-05-07T07:55:59.385Z,98512.78
2023-05-07T07:58:27.350Z,98527.00
2023-05-07T08:00:57.001Z,98517.56
2023-05-07T08:03:24.978Z,98521.25
2023-05-07T08:05:52.329Z,98518.81
2023-05-07T08:08:19.892Z,98516.09
2023-05-07T08:10:47.316Z,98519.16
2023-05-07T08:13:14.975Z,98519.25
2023-05-07T08:15:42.294Z,98529.69
2023-05-07T08:18:10.587Z,98525.84
2023-05-07T08:20:40.583Z,98525.06
2023-05-07T08:23:08.735Z,98532.34
2023-05-07T08:25:38.564Z,98531.28
2023-05-07T08:28:08.355Z,98533.81
2023-05-07T08:30:37.012Z,98533.88
2023-05-07T08:33:05.207Z,98535.66
2023-05-07T08:35:32.608Z,98543.28
2023-05-07T08:38:00.178Z,98542.31
2023-05-07T08:40:28.728Z,98547.16
2023-05-07T08:42:59.054Z,98551.19
2023-05-07T08:45:30.677Z,98556.97
2023-05-07T08:48:03.501Z,98561.19
2023-05-07T08:50:31.283Z,98573.34
2023-05-07T08:52:59.117Z,98565.16
2023-05-07T08:55:26.576Z,98572.16
2023-05-07T08:57:54.166Z,98571.63
2023-05-07T09:00:21.488Z,98569.09
2023-05-07T09:02:49.513Z,98577.75
2023-05-07T09:05:16.998Z,98583.41
2023-05-07T09:07:44.675Z,98578.81
2023-05-07T09:10:12.643Z,98588.97
2023-05-07T09:12:41.539Z,98579.97
2023-05-07T09:15:09.888Z,98579.94
2023-05-07T09:17:38.237Z,98588.59
2023-05-07T09:20:09.289Z,98589.78
2023-05-07T09:22:39.673Z,98586.88
2023-05-07T09:25:10.746Z,98592.44
2023-05-07T09:27:38.899Z,98585.13
2023-05-07T09:30:09.773Z,98590.34
2023-05-07T09:32:41.497Z,98591.63
2023-05-07T09:35:22.633Z,98595.81
2023-05-07T09:37:51.048Z,98602.84
2023-05-07T09:40:24.133Z,98605.03
2023-05-07T09:42:52.202Z,98606.78
2023-05-07T09:45:30.061Z,98605.88
2023-05-07T09:47:59.826Z,98606.38
2023-05-07T09:50:37.151Z,98608.19
2023-05-07T09:53:06.758Z,98612.91
2023-05-07T09:55:34.496Z,98614.88
2023-05-07T09:58:05.819Z,98606.25
2023-05-07T10:00:34.060Z,98617.91
2023-05-07T10:03:04.795Z,98620.22
2023-05-07T10:05:33.690Z,98626.63
2023-05-07T10:08:04.514Z,98630.41
2023-05-07T10:10:35.443Z,98631.63
2023-05-07T10:13:07.191Z,98639.81
2023-05-07T10:15:36.148Z,98634.88
2023-05-07T10:18:07.336Z,98643.19
2023-05-07T10:20:37.622Z,98639.44
2023-05-07T10:23:07.084Z,98647.69
2023-05-07T10:25:34.596Z,98641.19
2023-05-07T10:28:09.733Z,98642.75
2023-05-07T10:31:12.481Z,98642.56
2023-05-07T10:33:42.070Z,98652.63
2023-05-07T10:36:09.627Z,98656.59
2023-05-07T10:38:37.809Z,98661.75
2023-05-07T10:41:06.742Z,98656.41
2023-05-07T10:43:46.125Z,98649.16
2023-05-07T10:46:18.652Z,98661.41
2023-05-07T10:49:05.458Z,98657.75
2023-05-07T10:51:36.757Z,98652.63
2023-05-07T10:54:13.832Z,98652.94
2023-05-07T10:56:45.619Z,98656.28
2023-05-07T10:59:43.337Z,98661.84
2023-05-07T11:02:12.497Z,98653.88
2023-05-07T11:04:41.355Z,98658.59
2023-05-07T11:07:12.389Z,98660.31
2023-05-07T11:10:02.158Z,98666.13
2023-05-07T11:12:39.157Z,98674.50
2023-05-07T11:15:16.831Z,98672.22
2023-05-07T11:17:59.596Z,98678.56
2023-05-07T11:20:53.145Z,98677.47
2023-05-07T11:23:35.989Z,98671.97
2023-05-07T11:26:15.448Z,98674.28
2023-05-07T11:28:44.719Z,98678.38
2023-05-07T11:31:13.042Z,98689.28
2023-05-07T11:33:41.046Z,98687.22
2023-05-07T11:36:10.071Z,98693.56
2023-05-07T11:38:38.729Z,98691.09
2023-05-07T11:41:06.810Z,98702.28
2023-05-07T11:43:36.649Z,98697.97
2023-05-07T11:46:13.461Z,98696.19
2023-05-07T11:48:42.651Z,98692.75
2023-05-07T11:51:12.333Z,98695.22
2023-05-07T11:53:42.930Z,98688.53
2023-05-07T11:56:13.279Z,98694.28
2023-05-07T11:58:42.917Z,98691.00
2023-05-07T12:01:13.082Z,98685.69
2023-05-07T12:03:47.138Z,98689.66
2023-05-07T12:06:17.749Z,98696.09
2023-05-07T12:08:48.162Z,98699.06
2023-05-07T12:11:25.092Z,98699.63
2023-05-07T12:13:52.747Z,98702.00
2023-05-07T12:16:21.575Z,98710.38
2023-05-07T12:18:49.769Z,98706.38
2023-05-07T12:21:18.413Z,98715.16
2023-05-07T12:23:46.403Z,98719.72
2023-05-07T12:26:14.079Z,98727.03
2023-05-07T12:28:41.523Z,98719.28
2023-05-07T12:31:09.600Z,98718.81
2023-05-07T12:33:37.832Z,98718.50
2023-05-07T12:36:10.911Z,98718.22
2023-05-07T12:38:44.392Z,98727.69
2023-05-07T12:41:13.585Z,98732.06
2023-05-07T12:43:40.955Z,98733.00
2023-05-07T12:46:09.659Z,98729.28
2023-05-07T12:48:46.812Z,98728.44
2023-05-07T12:51:16.252Z,98731.31
2023-05-07T12:53:44.487Z,98728.88
2023-05-07T12:56:12.222Z,98733.34
2023-05-07T12:58:39.514Z,98731.16
2023-05-07T13:01:10.843Z,98733.94
2023-05-07T13:03:39.974Z,98739.47
2023-05-07T13:06:11.154Z,98737.22
2023-05-07T13:08:44.286Z,98732.97
2023-05-07T13:11:13.506Z,98741.28
2023-05-07T13:13:42.610Z,98742.25
2023-05-07T13:16:12.880Z,98753.38
2023-05-07T13:18:42.148Z,98733.94
2023-05-07T13:21:11.312Z,98741.38
2023-05-07T13:23:39.825Z,98732.47
2023-05-07T13:26:24.684Z,98740.66
2023-05-07T13:28:55.579Z,98741.72
2023-05-07T13:31:23.542Z,98748.44
2023-05-07T13:33:51.187Z,98750.94
2023-05-07T13:36:18.811Z,98742.38
2023-05-07T13:38:46.099Z,98747.97
2023-05-07T13:41:14.252Z,98742.25
2023-05-07T13:43:41.500Z,98740.78
2023-05-07T13:46:09.189Z,98738.22
2023-05-07T13:48:37.016Z,98741.88
2023-05-07T13:51:04.613Z,98739.03
2023-05-07T13:53:31.884Z,98742.22
2023-05-07T13:55:59.508Z,98741.75
2023-05-07T13:58:26.873Z,98746.19
2023-05-07T14:00:54.474Z,98747.22
2023-05-07T14:03:21.807Z,98744.31
2023-05-07T14:05:50.570Z,98744.97
2023-05-07T14:08:20.911Z,98747.75
2023-05-07T14:10:48.532Z,98755.59
2023-05-07T14:13:15.878Z,98752.91
2023-05-07T14:15:47.394Z,98757.69
2023-05-07T14:18:14.682Z,98753.06
2023-05-07T14:20:44.324Z,98756.22
2023-05-07T14:23:11.546Z,98757.84
2023-05-07T14:25:39.352Z,98762.56
2023-05-07T14:28:08.681Z,98762.53
2023-05-07T14:30:36.690Z,98771.53
2023-05-07T14:33:04.028Z,98777.59
2023-05-07T14:35:31.623Z,98782.47
2023-05-07T14:37:59.362Z,98771.22
2023-05-07T14:40:27.037Z,98773.59
2023-05-07T14:42:54.355Z,98782.00
2023-05-07T14:45:22.699Z,98782.59
2023-05-07T14:47:50.209Z,98782.38
2023-05-07T14:50:17.910Z,98786.88
2023-05-07T14:52:45.186Z,98786.06
2023-05-07T14:55:14.103Z,98800.41
2023-05-07T14:57:41.930Z,98790.44
2023-05-07T15:00:10.807Z,98798.22
2023-05-07T15:02:38.387Z,98798.38
2023-05-07T15:05:07.218Z,98796.44
2023-05-07T15:07:35.509Z,98798.59
2023-05-07T15:10:03.219Z,98800.44
2023-05-07T15:12:30.494Z,98789.53
2023-05-07T15:14:58.130Z,98795.78
2023-05-07T15:17:25.594Z,98797.38
2023-05-07T15:19:54.433Z,98806.75
2023-05-07T15:22:22.805Z,98806.34
2023-05-07T15:24:50.440Z,98805.97
2023-05-07T15:27:18.286Z,98796.38
2023-05-07T15:29:45.900Z,98794.22
2023-05-07T15:32:13.393Z,98804.75
2023-05-07T15:34:41.049Z,98807.28
2023-05-07T15:37:08.391Z,98799.78
2023-05-07T15:39:36.183Z,98806.84
2023-05-07T15:42:03.795Z,98810.50
2023-05-07T15:44:35.477Z,98815.31
2023-05-07T15:47:03.199Z,98823.31
2023-05-07T15:49:31.183Z,98823.28
2023-05-07T15:51:58.499Z,98815.63
2023-05-07T15:54:26.279Z,98823.34
2023-05-07T15:56:53.618Z,98827.13
2023-05-07T15:59:21.857Z,98831.16
2023-05-07T16:01:49.993Z,98820.28
2023-05-07T16:04:17.779Z,98829.44
2023-05-07T16:06:47.521Z,98827.97
2023-05-07T16:09:16.844Z,98829.16
2023-05-07T16:11:44.258Z,98827.75
2023-05-07T16:14:11.961Z,98816.88
2023-05-07T16:16:41.022Z,98827.31
2023-05-07T16:19:08.864Z,98827.19
2023-05-07T16:21:36.461Z,98829.41
2023-05-07T16:24:04.806Z,98837.63
2023-05-07T16:26:32.113Z,98829.75
2023-05-07T16:29:01.921Z,98831.88
2023-05-07T16:31:29.277Z,98825.53
2023-05-07T16:33:56.982Z,98818.31
2023-05-07T16:36:27.791Z,98819.53
2023-05-07T16:38:56.016Z,98818.91
2023-05-07T16:41:23.503Z,98828.06
2023-05-07T16:43:51.515Z,98828.16
2023-05-07T16:46:18.761Z,98834.53
2023-05-07T16:48:46.370Z,98824.75
2023-05-07T16:51:13.913Z,98830.63
2023-05-07T16:53:41.603Z,98824.13
2023-05-07T16:56:09.165Z,98830.75
2023-05-07T16:58:36.691Z,98832.88
2023-05-07T17:01:04.158Z,98834.78
2023-05-07T17:03:32.380Z,98836.81
2023-05-07T17:06:00.143Z,98838.59
2023-05-07T17:08:27.949Z,98837.91
2023-05-07T17:10:55.384Z,98839.44
2023-05-07T17:13:23.096Z,98830.53
2023-05-07T17:15:50.575Z,98830.31
2023-05-07T17:18:18.235Z,98842.25
2023-05-07T17:20:45.724Z,98839.25
2023-05-07T17:23:13.820Z,98848.09
2023-05-07T17:25:45.645Z,98851.38
2023-05-07T17:28:13.537Z,98849.25
2023-05-07T17:30:41.563Z,98848.50
2023-05-07T17:33:20.047Z,98861.97
2023-05-07T17:35:48.738Z,98864.03
2023-05-07T17:38:16.432Z,98866.06
2023-05-07T17:40:43.933Z,98862.16
2023-05-07T17:43:11.762Z,98865.13
2023-05-07T17:45:39.211Z,98871.78
2023-05-07T17:48:07.313Z,98864.66
2023-05-07T17:50:34.753Z,98863.38
2023-05-07T17:53:02.528Z,98867.72
2023-05-07T17:55:33.103Z,98869.72
2023-05-07T17:58:03.357Z,98876.59
2023-05-07T18:00:30.801Z,98877.78
2023-05-07T18:03:00.218Z,98878.69
2023-05-07T18:05:27.979Z,98881.75
2023-05-07T18:07:56.324Z,98880.06
2023-05-07T18:10:24.222Z,98879.38
2023-05-07T18:12:51.956Z,98883.75
2023-05-07T18:15:19.615Z,98896.47
2023-05-07T18:17:47.301Z,98899.69
2023-05-07T18:20:15.075Z,98898.06
2023-05-07T18:22:42.741Z,98890.88
2023-05-07T18:25:10.478Z,98891.72
2023-05-07T18:27:38.165Z,98896.00
2023-05-07T18:30:06.516Z,98887.41
2023-05-07T18:32:34.211Z,98895.69
2023-05-07T18:35:01.569Z,98893.09
2023-05-07T18:37:29.948Z,98899.84
2023-05-07T18:39:57.845Z,98894.25
2023-05-07T18:42:25.554Z,98901.22
2023-05-07T18:44:52.867Z,98909.13
2023-05-07T18:47:20.512Z,98912.78
2023-05-07T18:49:47.819Z,98908.88
2023-05-07T18:52:17.346Z,98905.22
2023-05-07T18:54:45.824Z,98906.03
2023-05-07T18:57:13.473Z,98897.22
2023-05-07T18:59:40.772Z,98894.88
2023-05-07T19:02:08.343Z,98912.34
2023-05-07T19:04:36.456Z,98910.50
2023-05-07T19:07:04.101Z,98914.69
2023-05-07T19:09:31.444Z,98922.63
2023-05-07T19:11:59.489Z,98922.56
2023-05-07T19:14:27.108Z,98921.78
2023-05-07T19:16:54.782Z,98919.72
2023-05-07T19:19:22.436Z,98918.25
2023-05-07T19:21:50.907Z,98921.19
2023-05-07T19:24:18.234Z,98926.63
2023-05-07T19:26:45.918Z,98927.53
2023-05-07T19:29:17.988Z,98927.38
2023-05-07T19:31:46.370Z,98935.06
2023-05-07T19:34:14.419Z,98928.47
2023-05-07T19:36:42.328Z,98932.97
2023-05-07T19:39:10.153Z,98927.28
2023-05-07T19:41:38.195Z,98928.78
2023-05-07T19:44:05.570Z,98936.00
2023-05-07T19:46:33.624Z,98930.13
2023-05-07T19:49:01.701Z,98941.59
2023-05-07T19:51:32.540Z,98943.81
2023-05-07T19:54:00.416Z,98942.09
2023-05-07T19:56:28.177Z,98937.28
2023-05-07T19:58:55.602Z,98939.97
2023-05-07T20:01:23.435Z,98939.97
2023-05-07T20:03:50.917Z,98943.06
2023-05-07T20:06:18.746Z,98942.56
2023-05-07T20:08:46.169Z,98947.34
2023-05-07T20:11:14.358Z,98949.75
2023-05-07T20:13:41.812Z,98943.41
2023-05-07T20:16:09.602Z,98940.44
2023-05-07T20:18:36.986Z,98941.22
2023-05-07T20:21:05.374Z,98946.50
2023-05-07T20:23:33.258Z,98945.81
2023-05-07T20:26:01.616Z,98953.47
2023-05-07T20:28:29.281Z,98948.59
2023-05-07T20:30:57.002Z,98957.22
2023-05-07T20:33:24.585Z,98948.59
2023-05-07T20:35:52.203Z,98955.22
2023-05-07T20:38:19.590Z,98957.91
2023-05-07T20:40:47.388Z,98956.91
2023-05-07T20:43:14.957Z,98955.66
2023-05-07T20:45:42.680Z,98966.78
2023-05-07T20:48:10.098Z,98967.69
2023-05-07T20:50:37.809Z,98969.44
2023-05-07T20:53:05.384Z,98970.41
2023-05-07T20:55:33.089Z,98974.94
2023-05-07T20:58:00.535Z,98976.81
2023-05-07T21:00:28.240Z,98975.22
2023-05-07T21:02:55.725Z,98969.16
2023-05-07T21:05:23.548Z,98972.19
2023-05-07T21:07:50.841Z,98974.03
2023-05-07T21:10:18.515Z,98974.44
2023-05-07T21:12:45.995Z,98980.69
2023-05-07T21:15:13.692Z,98976.28
2023-05-07T21:17:41.132Z,98980.25
2023-05-07T21:20:09.555Z,98979.56
2023-05-07T21:22:36.939Z,98978.31
2023-05-07T21:25:05.332Z,98982.81
2023-05-07T21:27:32.615Z,98989.78
2023-05-07T21:30:04.901Z,98988.22
2023-05-07T21:32:32.396Z,98981.69
2023-05-07T21:35:03.078Z,98983.44
2023-05-07T21:37:30.440Z,98986.88
2023-05-07T21:39:58.023Z,98978.56
2023-05-07T21:42:25.855Z,98979.00
2023-05-07T21:44:53.533Z,98976.69
2023-05-07T21:47:21.346Z,98986.34
2023-05-07T21:49:49.011Z,98985.47
2023-05-07T21:52:17.585Z,98983.03
2023-05-07T21:54:45.267Z,98993.84
2023-05-07T21:57:12.605Z,98994.63
2023-05-07T21:59:40.323Z,98996.69
2023-05-07T22:02:07.611Z,98993.22
2023-05-07T22:04:35.578Z,98981.91
2023-05-07T22:07:02.908Z,98995.63
2023-05-07T22:09:30.562Z,98999.56
2023-05-07T22:11:57.826Z,98992.94
2023-05-07T22:14:25.532Z,98996.72
2023-05-07T22:16:53.119Z,98999.06
2023-05-07T22:19:21.360Z,98992.75
2023-05-07T22:21:48.684Z,98994.63
2023-05-07T22:24:16.424Z,99003.16
2023-05-07T22:26:45.172Z,99001.47
2023-05-07T22:29:12.818Z,98994.34
2023-05-07T22:31:40.139Z,98998.78
2023-05-07T22:34:07.955Z,98989.13
2023-05-07T22:36:35.552Z,98989.28
2023-05-07T22:39:07.149Z,98991.50
2023-05-07T22:41:34.724Z,98979.66
2023-05-07T22:44:03.159Z,98978.47
2023-05-07T22:46:31.315Z,98980.06
2023-05-07T22:48:58.973Z,98986.31
2023-05-07T22:51:26.383Z,98981.31
2023-05-07T22:53:54.161Z,98977.72
2023-05-07T22:56:21.566Z,98975.78
2023-05-07T22:58:49.690Z,98970.91
2023-05-07T23:01:18.961Z,98971.84
2023-05-07T23:03:46.799Z,98975.59
2023-05-07T23:06:14.404Z,98970.72
2023-05-07T23:08:42.050Z,98974.38
2023-05-07T23:11:09.391Z,98973.66
2023-05-07T23:13:37.045Z,98972.44
2023-05-07T23:16:04.608Z,98968.22
2023-05-07T23:18:32.724Z,98970.03
2023-05-07T23:21:00.013Z,98970.19
2023-05-07T23:23:33.639Z,98970.19
2023-05-07T23:26:01.154Z,98972.25
2023-05-07T23:28:28.946Z,98973.03
2023-05-07T23:30:56.803Z,98971.69
2023-05-07T23:33:24.505Z,98971.88
2023-05-07T23:36:00.471Z,98968.91
2023-05-07T23:38:28.177Z,98967.59
2023-05-07T23:40:55.886Z,98959.03
2023-05-07T23:43:23.797Z,98957.13
2023-05-07T23:45:51.749Z,98958.19
2023-05-07T23:48:19.696Z,98963.50
2023-05-07T23:50:47.146Z,98963.28
2023-05-07T23:53:14.760Z,98957.38
2023-05-07T23:55:42.526Z,98960.22
2023-05-07T23:58:10.582Z,98957.06
